Time;durP1;ratioP1;P1;durP2;ratioP2;P2;SDS_P1;SDS_P2;PMS_P1;PMS_P2;Temp;Humidity;BMP_temperature;BMP_pressure;BME280_temperature;BME280_humidity;BME280_pressure;Samples;Min_cycle;Max_cycle;Signal;HPM_P1;HPM_P2
2022/12/24 00:00:57;;;;;;;19.00;15.50;;;;;;;9.90;100.00;98940.52;2879265;81;21124;-89
2022/12/24 00:04:58;;;;;;;18.32;12.58;;;;;;;9.98;100.00;98937.91;2847150;81;21604;-90
2022/12/24 00:09:00;;;;;;;18.55;13.95;;;;;;;10.07;100.00;98935.66;2860790;81;20994;-88
2022/12/24 00:13:01;;;;;;;16.42;12.05;;;;;;;10.13;100.00;98931.55;2826683;81;21058;-89
2022/12/24 00:17:03;;;;;;;16.97;13.68;;;;;;;10.20;100.00;98933.91;2852656;82;21010;-89
2022/12/24 00:21:05;;;;;;;14.53;11.20;;;;;;;10.22;100.00;98928.42;2849620;82;21038;-88
2022/12/24 00:25:07;;;;;;;17.73;11.95;;;;;;;10.21;100.00;98929.41;2817415;81;20982;-88
2022/12/24 00:29:11;;;;;;;20.30;13.28;;;;;;;10.14;100.00;98935.88;2848698;81;21058;-88
2022/12/24 00:33:12;;;;;;;16.87;12.03;;;;;;;10.03;100.00;98927.67;2846024;81;21611;-90
2022/12/24 00:37:13;;;;;;;13.28;9.95;;;;;;;9.84;100.00;98930.00;2851404;81;21038;-91
2022/12/24 00:41:24;;;;;;;10.60;9.00;;;;;;;9.80;100.00;98936.63;2861430;81;21038;-90
2022/12/24 00:45:26;;;;;;;16.52;10.58;;;;;;;9.74;100.00;98934.59;2863258;83;21019;-90
2022/12/24 00:49:28;;;;;;;13.90;9.33;;;;;;;9.56;100.00;98933.59;2833898;83;20998;-91
2022/12/24 00:53:29;;;;;;;12.53;9.23;;;;;;;9.61;100.00;98933.63;2841700;82;21041;-91
2022/12/24 00:57:30;;;;;;;15.08;9.53;;;;;;;9.69;100.00;98933.72;2840734;81;21046;-92
2022/12/24 01:01:32;;;;;;;12.88;8.63;;;;;;;9.78;100.00;98944.73;2809150;83;21026;-92
2022/12/24 01:05:33;;;;;;;11.15;8.58;;;;;;;9.84;100.00;98941.48;2807966;83;21091;-92
2022/12/24 01:09:34;;;;;;;13.88;8.80;;;;;;;9.93;100.00;98939.72;2813380;83;21015;-91
2022/12/24 01:13:36;;;;;;;15.25;8.60;;;;;;;9.90;100.00;98932.55;2827477;82;20991;-91
2022/12/24 01:17:39;;;;;;;12.88;7.87;;;;;;;9.79;100.00;98939.76;2805284;83;22190;-90
2022/12/24 01:21:40;;;;;;;11.45;6.65;;;;;;;9.67;100.00;98935.69;2840022;83;21373;-92
2022/12/24 01:25:41;;;;;;;11.43;5.15;;;;;;;9.57;100.00;98931.80;2865344;82;21530;-91
2022/12/24 01:29:43;;;;;;;6.78;5.60;;;;;;;9.47;100.00;98945.62;2820377;82;21109;-92
2022/12/24 01:33:45;;;;;;;7.12;6.03;;;;;;;9.54;100.00;98936.08;2824676;82;21365;-93
2022/12/24 01:37:47;;;;;;;7.12;6.30;;;;;;;9.52;100.00;98929.59;2827327;83;20986;-93
2022/12/24 01:46:28;;;;;;;6.47;5.80;;;;;;;9.44;100.00;98933.51;2825325;83;21060;-91
2022/12/24 01:50:30;;;;;;;11.80;6.20;;;;;;;9.41;100.00;98929.80;2840774;83;21186;-91
2022/12/24 01:54:46;;;;;;;7.80;4.97;;;;;;;9.39;100.00;98935.77;2823133;83;21027;-92
2022/12/24 01:58:52;;;;;;;7.25;4.78;;;;;;;9.38;100.00;98935.42;2851695;82;21541;-92
2022/12/24 02:02:54;;;;;;;17.10;9.03;;;;;;;9.38;100.00;98940.25;2818742;82;21640;-92
2022/12/24 02:06:56;;;;;;;14.23;7.30;;;;;;;9.47;100.00;98948.28;2818176;82;21089;-91
2022/12/24 02:10:57;;;;;;;6.65;3.83;;;;;;;9.54;100.00;98950.17;2843540;82;21010;-92
2022/12/24 02:14:59;;;;;;;6.80;3.45;;;;;;;9.64;100.00;98941.31;2854156;82;21109;-92
2022/12/24 02:19:12;;;;;;;4.17;3.47;;;;;;;9.68;100.00;98936.03;2830414;83;21010;-91
2022/12/24 02:23:25;;;;;;;4.42;2.90;;;;;;;9.77;100.00;98935.61;2829771;82;22223;-90
2022/12/24 02:27:55;;;;;;;4.72;2.45;;;;;;;9.85;100.00;98935.17;2832461;82;21089;-90
2022/12/24 02:32:01;;;;;;;5.47;2.55;;;;;;;9.93;100.00;98942.37;2866775;80;21018;-91
2022/12/24 02:36:11;;;;;;;;;;;;;;;9.93;100.00;98940.20;2832882;82;21003;-91
2022/12/24 02:40:33;;;;;;;3.98;2.67;;;;;;;9.95;100.00;98938.22;2850737;82;20134;-90
2022/12/24 02:44:45;;;;;;;4.37;3.40;;;;;;;9.96;100.00;98927.45;2843620;82;21610;-90
2022/12/24 02:48:48;;;;;;;4.60;3.02;;;;;;;9.91;100.00;98930.23;2838482;82;21034;-91
2022/12/24 02:52:49;;;;;;;10.75;3.95;;;;;;;9.90;100.00;98928.05;2813652;83;21015;-92
2022/12/24 02:57:14;;;;;;;4.40;3.45;;;;;;;9.90;100.00;98932.55;2844563;82;20971;-92
2022/12/24 03:01:44;;;;;;;5.78;3.87;;;;;;;9.82;100.00;98937.30;2843945;82;21674;-92
2022/12/24 03:05:56;;;;;;;7.97;4.78;;;;;;;9.77;100.00;98931.11;2841669;82;21097;-93
2022/12/24 03:10:12;;;;;;;2.83;2.42;;;;;;;9.74;100.00;98938.06;2841880;82;21040;-93
2022/12/24 03:14:15;;;;;;;2.70;2.30;;;;;;;9.72;100.00;98941.37;2809819;83;21050;-91
2022/12/24 03:18:21;;;;;;;1.98;1.32;;;;;;;9.86;100.00;98954.11;2860869;81;21529;-91
2022/12/24 03:22:25;;;;;;;1.37;1.20;;;;;;;9.98;100.00;98960.00;2868397;81;21034;-91
2022/12/24 03:26:30;;;;;;;3.42;1.60;;;;;;;10.23;100.00;98942.08;2854256;82;21054;-92
2022/12/24 03:30:32;;;;;;;3.52;1.80;;;;;;;10.33;100.00;98939.31;2849077;82;21075;-92
2022/12/24 03:34:33;;;;;;;5.25;1.57;;;;;;;10.38;100.00;98941.81;2837896;81;21046;-91
2022/12/24 03:38:35;;;;;;;2.95;1.70;;;;;;;10.47;100.00;98957.34;2839215;82;22189;-92
2022/12/24 03:42:36;;;;;;;3.72;1.42;;;;;;;10.45;100.00;98954.52;2841294;83;21098;-92
2022/12/24 03:46:38;;;;;;;1.70;1.47;;;;;;;10.49;100.00;98955.36;2856467;81;21010;-92
2022/12/24 03:50:39;;;;;;;2.52;1.60;;;;;;;10.57;100.00;98963.39;2851301;81;21007;-91
2022/12/24 03:54:40;;;;;;;5.72;2.75;;;;;;;10.58;100.00;98969.53;2850490;81;21665;-90
2022/12/24 03:58:42;;;;;;;3.27;2.77;;;;;;;10.56;100.00;98971.52;2844913;82;21022;-92
2022/12/24 04:02:43;;;;;;;18.60;2.90;;;;;;;10.51;100.00;98975.97;2830855;82;21055;-91
2022/12/24 04:06:45;;;;;;;3.20;2.10;;;;;;;10.50;100.00;98999.56;2858416;82;21005;-91
2022/12/24 04:10:46;;;;;;;4.75;2.62;;;;;;;10.52;100.00;98996.28;2890199;82;21586;-91
2022/12/24 04:14:47;;;;;;;3.25;2.33;;;;;;;10.53;100.00;98988.64;2884871;80;21019;-92
2022/12/24 04:18:48;;;;;;;7.90;2.05;;;;;;;10.62;100.00;98985.53;2843193;83;21000;-90
2022/12/24 04:22:52;;;;;;;4.92;1.90;;;;;;;10.68;100.00;98994.20;2840936;82;20987;-89
2022/12/24 04:26:53;;;;;;;6.65;1.32;;;;;;;10.68;100.00;98985.37;2822198;82;21046;-90
2022/12/24 04:31:04;;;;;;;10.78;2.10;;;;;;;10.79;100.00;98991.75;2839926;82;21559;-92
2022/12/24 04:35:06;;;;;;;6.30;2.25;;;;;;;10.79;100.00;98992.23;2838562;82;20985;-92
2022/12/24 04:39:07;;;;;;;3.65;2.50;;;;;;;10.83;100.00;99008.23;2832600;82;21079;-91
2022/12/24 04:43:08;;;;;;;4.85;3.42;;;;;;;10.77;100.00;99006.19;2810653;82;21048;-91
2022/12/24 04:47:10;;;;;;;6.78;3.42;;;;;;;10.73;100.00;99003.52;2832388;82;21051;-92
2022/12/24 04:51:12;;;;;;;7.58;2.80;;;;;;;10.76;100.00;99004.05;2830541;83;21022;-92
2022/12/24 04:55:13;;;;;;;3.35;1.72;;;;;;;10.81;100.00;99012.89;2809926;83;21050;-91
2022/12/24 04:59:14;;;;;;;5.72;2.35;;;;;;;10.82;100.00;99017.21;2837881;83;20990;-90
2022/12/24 05:03:16;;;;;;;3.72;1.90;;;;;;;10.88;100.00;99012.58;2882040;82;20994;-92
2022/12/24 05:07:17;;;;;;;5.30;2.45;;;;;;;10.99;100.00;99023.44;2865520;82;21530;-90
2022/12/24 05:11:18;;;;;;;4.35;2.22;;;;;;;11.05;100.00;99034.76;2837432;82;21027;-91
2022/12/24 05:15:20;;;;;;;3.47;2.02;;;;;;;11.07;100.00;99025.30;2743947;83;21044;-91
2022/12/24 05:19:21;;;;;;;5.08;1.98;;;;;;;11.08;100.00;99033.62;2841577;82;21014;-91
2022/12/24 05:27:45;;;;;;;6.50;2.33;;;;;;;11.08;100.00;99034.44;2839864;82;21613;-91
2022/12/24 05:31:47;;;;;;;4.08;2.12;;;;;;;11.09;100.00;99048.59;2814366;82;21082;-91
2022/12/24 05:35:51;;;;;;;4.58;2.65;;;;;;;11.12;100.00;99053.59;2836796;82;21075;-90
2022/12/24 05:39:52;;;;;;;4.83;2.12;;;;;;;11.13;100.00;99049.45;2856169;81;21064;-91
2022/12/24 05:43:53;;;;;;;6.30;2.08;;;;;;;11.09;100.00;99064.05;2840050;82;21597;-91
2022/12/24 05:47:55;;;;;;;5.67;2.42;;;;;;;11.10;100.00;99064.41;2835440;83;21006;-91
2022/12/24 05:51:56;;;;;;;4.03;1.90;;;;;;;11.08;100.00;99073.02;2808819;82;21002;-90
2022/12/24 05:56:09;;;;;;;6.28;2.80;;;;;;;11.03;100.00;99068.68;2832005;82;21101;-91
2022/12/24 06:00:10;;;;;;;2.62;1.77;;;;;;;11.08;100.00;99086.84;2793785;83;21082;-90
2022/12/24 06:04:12;;;;;;;5.35;2.75;;;;;;;11.07;100.00;99093.16;2774054;83;21378;-90
2022/12/24 06:08:14;;;;;;;5.25;1.52;;;;;;;11.05;100.00;99099.14;2797422;83;21495;-90
2022/12/24 06:12:15;;;;;;;3.35;1.52;;;;;;;11.06;100.00;99102.95;2839405;83;20976;-90
2022/12/24 06:16:18;;;;;;;6.15;2.33;;;;;;;11.02;100.00;99113.58;2839088;83;21550;-91
2022/12/24 06:20:20;;;;;;;4.00;2.33;;;;;;;11.00;100.00;99116.42;2829380;83;21468;-91
2022/12/24 06:24:21;;;;;;;4.05;2.42;;;;;;;10.99;100.00;99128.02;2825802;83;20971;-90
2022/12/24 06:28:23;;;;;;;4.15;1.65;;;;;;;10.98;100.00;99119.70;2881255;82;21026;-89
2022/12/24 06:32:24;;;;;;;4.85;2.27;;;;;;;10.95;100.00;99140.48;2769953;82;21058;-90
2022/12/24 06:36:26;;;;;;;5.60;1.50;;;;;;;10.89;100.00;99142.42;2760961;83;20999;-90
2022/12/24 06:40:27;;;;;;;3.87;1.27;;;;;;;10.91;100.00;99149.78;2837105;83;21030;-90
2022/12/24 06:44:28;;;;;;;4.17;1.98;;;;;;;10.93;100.00;99145.95;2814593;83;21018;-92
2022/12/24 06:48:30;;;;;;;3.67;1.52;;;;;;;10.95;100.00;99171.91;2827068;83;21043;-91
2022/12/24 06:52:32;;;;;;;3.77;1.57;;;;;;;10.92;100.00;99164.23;2833677;82;21074;-90
2022/12/24 06:56:33;;;;;;;6.12;1.65;;;;;;;10.89;100.00;99175.20;2840566;82;21506;-89
2022/12/24 07:00:34;;;;;;;3.95;2.35;;;;;;;10.83;100.00;99183.30;2809891;83;21006;-90
2022/12/24 07:04:36;;;;;;;4.35;1.47;;;;;;;10.84;100.00;99185.48;2818185;82;21091;-90
2022/12/24 07:08:37;;;;;;;3.87;1.60;;;;;;;10.84;100.00;99190.28;2843969;83;21122;-91
2022/12/24 07:12:39;;;;;;;2.50;1.10;;;;;;;10.73;100.00;99215.81;2841563;82;21610;-90
2022/12/24 07:16:40;;;;;;;1.50;1.02;;;;;;;10.76;100.00;99237.27;2833138;82;21010;-90
2022/12/24 07:20:42;;;;;;;2.85;2.00;;;;;;;10.63;100.00;99241.16;2841320;82;21594;-91
2022/12/24 07:24:43;;;;;;;2.55;1.10;;;;;;;10.60;100.00;99257.91;2842180;82;21142;-91
2022/12/24 07:28:44;;;;;;;3.05;1.25;;;;;;;10.54;100.00;99268.16;2768125;83;21538;-91
2022/12/24 07:32:46;;;;;;;14.07;6.47;;;;;;;10.63;100.00;99286.84;2831798;83;21006;-89
2022/12/24 07:36:47;;;;;;;5.20;1.98;;;;;;;10.68;100.00;99289.41;2833111;82;20987;-91
2022/12/24 07:40:48;;;;;;;3.98;1.52;;;;;;;10.59;100.00;99300.93;2826409;83;21106;-92
2022/12/24 07:44:50;;;;;;;3.33;1.98;;;;;;;10.51;100.00;99304.84;2833954;82;21035;-91
2022/12/24 07:48:51;;;;;;;7.65;1.80;;;;;;;10.50;100.00;99305.83;2825297;82;21538;-91
2022/12/24 07:52:53;;;;;;;1.57;0.90;;;;;;;10.48;100.00;99313.13;2757149;83;21018;-91
2022/12/24 07:56:54;;;;;;;2.80;1.57;;;;;;;10.48;100.00;99321.92;2814665;82;21101;-91
2022/12/24 08:00:57;;;;;;;2.10;1.40;;;;;;;10.41;100.00;99332.31;2872063;80;21007;-90
2022/12/24 08:04:59;;;;;;;3.72;2.08;;;;;;;10.45;100.00;99342.67;2820541;82;21066;-91
2022/12/24 08:09:00;;;;;;;3.12;2.27;;;;;;;10.46;100.00;99360.30;2813102;83;20986;-91
2022/12/24 08:13:02;;;;;;;7.53;3.60;;;;;;;10.38;100.00;99379.61;2804875;82;21080;-91
2022/12/24 08:17:03;;;;;;;3.90;2.92;;;;;;;10.34;100.00;99377.73;2808423;83;21015;-91
2022/12/24 08:21:07;;;;;;;19.27;2.98;;;;;;;10.34;100.00;99388.36;2801104;83;21040;-89
2022/12/24 08:25:09;;;;;;;3.05;2.52;;;;;;;10.35;100.00;99394.53;2874015;82;21031;-92
2022/12/24 08:29:10;;;;;;;4.10;3.30;;;;;;;10.34;100.00;99402.98;2825855;82;21786;-91
2022/12/24 08:33:12;;;;;;;4.70;2.70;;;;;;;10.39;100.00;99414.00;2829989;83;21055;-92
2022/12/24 08:37:13;;;;;;;6.33;3.35;;;;;;;10.35;100.00;99429.91;2803785;83;22400;-91
2022/12/24 08:41:14;;;;;;;3.45;2.95;;;;;;;10.36;100.00;99437.41;2833840;82;21038;-90
2022/12/24 08:45:17;;;;;;;7.78;3.30;;;;;;;10.37;100.00;99445.22;2804426;82;21079;-91
2022/12/24 08:49:18;;;;;;;6.15;4.87;;;;;;;10.35;100.00;99464.98;2807821;83;21995;-90
2022/12/24 08:53:19;;;;;;;51.65;32.63;;;;;;;10.23;100.00;99459.00;2837789;83;21565;-90
2022/12/24 08:57:21;;;;;;;9.58;8.43;;;;;;;10.25;100.00;99456.52;2850039;82;20979;-90
2022/12/24 09:01:22;;;;;;;3.87;3.10;;;;;;;10.30;100.00;99470.72;2811104;83;21002;-92
2022/12/24 09:05:24;;;;;;;4.75;4.30;;;;;;;10.35;100.00;99465.80;2811561;83;20968;-92
2022/12/24 09:09:27;;;;;;;4.42;4.05;;;;;;;10.32;100.00;99470.08;2798117;83;21107;-89
2022/12/24 09:13:29;;;;;;;2.67;2.42;;;;;;;10.24;100.00;99480.61;2831933;83;21502;-88
2022/12/24 09:17:30;;;;;;;5.75;3.37;;;;;;;10.34;100.00;99476.59;2828370;83;21012;-88
2022/12/24 09:21:32;;;;;;;6.00;5.20;;;;;;;10.33;100.00;99485.05;2821950;83;21027;-87
2022/12/24 09:25:33;;;;;;;6.17;5.58;;;;;;;10.37;100.00;99494.41;2773042;84;21062;-86
2022/12/24 09:29:35;;;;;;;5.35;3.80;;;;;;;10.44;100.00;99505.34;2751320;84;21061;-85
2022/12/24 09:33:40;;;;;;;2.58;2.37;;;;;;;10.37;100.00;99514.84;2759615;85;21019;-87
2022/12/24 09:37:41;;;;;;;2.90;2.58;;;;;;;10.33;100.00;99522.77;2814360;83;21070;-86
2022/12/24 09:42:15;;;;;;;83.03;48.60;;;;;;;10.36;100.00;99534.44;2777968;84;21027;-87
2022/12/24 09:46:37;;;;;;;8.45;6.25;;;;;;;10.41;100.00;99527.72;2757669;85;21071;-86
2022/12/24 09:50:58;;;;;;;4.35;3.95;;;;;;;10.53;100.00;99544.37;2802411;83;21058;-87
2022/12/24 09:55:32;;;;;;;10.23;5.12;;;;;;;10.58;100.00;99541.26;2787536;85;21047;-87
2022/12/24 09:59:44;;;;;;;12.53;7.08;;;;;;;10.47;100.00;99552.08;2820688;82;21114;-86
2022/12/24 10:03:46;;;;;;;34.30;21.00;;;;;;;10.46;100.00;99560.53;2842436;82;21345;-87
2022/12/24 10:07:56;;;;;;;13.35;9.93;;;;;;;10.43;100.00;99559.49;2877990;79;21079;-84
2022/12/24 10:12:37;;;;;;;7.40;4.25;;;;;;;10.40;100.00;99561.94;2829583;82;21039;-84
2022/12/24 10:17:24;;;;;;;4.85;3.83;;;;;;;10.53;100.00;99563.46;2830769;82;21031;-84
2022/12/24 10:21:46;;;;;;;7.10;3.50;;;;;;;10.40;100.00;99564.59;2887711;82;21023;-86
2022/12/24 10:26:17;;;;;;;6.08;4.25;;;;;;;10.45;100.00;99573.48;2868141;80;21050;-87
2022/12/24 10:30:21;;;;;;;13.25;5.83;;;;;;;10.48;100.00;99581.67;2840882;82;21376;-85
2022/12/24 10:34:27;;;;;;;18.85;8.33;;;;;;;10.49;100.00;99574.05;2810524;82;21082;-86
2022/12/24 10:38:30;;;;;;;35.88;11.50;;;;;;;10.43;100.00;99593.58;2831985;82;21022;-87
2022/12/24 10:42:43;;;;;;;56.53;17.52;;;;;;;10.45;100.00;99605.89;2838462;82;21040;-86
2022/12/24 10:46:46;;;;;;;44.77;16.55;;;;;;;10.42;100.00;99620.30;2828813;82;21109;-85
2022/12/24 10:50:59;;;;;;;7.58;4.10;;;;;;;10.53;100.00;99617.98;2843406;83;21012;-86
2022/12/24 10:55:27;;;;;;;11.90;4.75;;;;;;;10.41;100.00;99611.47;2839519;82;21623;-85
2022/12/24 10:59:39;;;;;;;14.47;4.17;;;;;;;10.42;100.00;99621.63;2811822;82;21301;-85
2022/12/24 11:03:41;;;;;;;9.58;3.58;;;;;;;10.33;100.00;99620.62;2823307;81;21083;-86
2022/12/24 11:07:48;;;;;;;10.68;3.25;;;;;;;10.39;100.00;99623.21;2827962;81;21014;-84
2022/12/24 11:11:49;;;;;;;4.35;3.12;;;;;;;10.42;100.00;99646.88;2817724;81;21065;-86
2022/12/24 11:16:08;;;;;;;8.88;4.37;;;;;;;10.38;100.00;99638.31;2849423;81;21031;-85
2022/12/24 11:20:20;;;;;;;16.87;3.87;;;;;;;10.35;100.00;99631.95;2846974;81;20971;-86
2022/12/24 11:24:33;;;;;;;8.18;3.35;;;;;;;10.30;100.00;99650.14;2808665;81;21038;-85
2022/12/24 11:28:34;;;;;;;5.55;3.47;;;;;;;10.33;100.00;99655.69;2812722;83;21561;-86
2022/12/24 11:32:36;;;;;;;14.40;5.47;;;;;;;10.39;100.00;99671.89;2844873;81;21531;-85
2022/12/24 11:36:37;;;;;;;14.33;4.72;;;;;;;10.46;100.00;99675.38;2819709;81;21019;-84
2022/12/24 11:40:43;;;;;;;14.23;5.05;;;;;;;10.54;100.00;99680.81;2841848;81;21038;-86
2022/12/24 11:44:48;;;;;;;6.75;4.47;;;;;;;10.62;100.00;99678.78;2838687;81;21030;-85
2022/12/24 11:49:04;;;;;;;8.93;3.87;;;;;;;10.57;100.00;99691.16;2843307;81;21026;-85
2022/12/24 11:53:19;;;;;;;10.50;5.60;;;;;;;10.62;100.00;99683.63;2817221;82;21443;-85
2022/12/24 11:57:24;;;;;;;8.65;4.08;;;;;;;10.68;100.00;99687.05;2846691;83;21028;-85
2022/12/24 12:01:37;;;;;;;7.65;3.67;;;;;;;10.63;100.00;99698.61;2826708;81;21042;-85
2022/12/24 12:05:39;;;;;;;11.03;3.58;;;;;;;10.71;100.00;99689.92;2848537;83;21609;-86
2022/12/24 12:09:51;;;;;;;7.62;3.90;;;;;;;10.66;100.00;99690.34;2845428;83;21030;-85
2022/12/24 12:13:55;;;;;;;10.88;4.35;;;;;;;10.64;100.00;99717.58;2825834;83;21470;-85
2022/12/24 12:18:08;;;;;;;11.63;4.08;;;;;;;10.73;100.00;99704.39;2849859;83;21069;-83
2022/12/24 12:22:15;;;;;;;7.83;2.72;;;;;;;10.73;100.00;99717.70;2850736;80;21011;-84
2022/12/24 12:26:26;;;;;;;10.10;4.35;;;;;;;10.75;100.00;99707.75;2830337;83;21065;-85
2022/12/24 12:30:30;;;;;;;10.23;3.62;;;;;;;10.82;100.00;99719.53;2839461;81;21104;-83
2022/12/24 12:34:39;;;;;;;8.50;4.17;;;;;;;10.85;100.00;99722.72;2852574;83;21612;-84
2022/12/24 12:38:41;;;;;;;17.10;4.87;;;;;;;10.93;98.94;99718.02;2841171;82;21050;-85
2022/12/24 12:42:51;;;;;;;7.60;4.25;;;;;;;11.07;98.02;99718.58;2845543;83;21529;-85
2022/12/24 12:47:12;;;;;;;10.58;4.00;;;;;;;11.22;95.65;99730.45;2844994;83;21073;-85
2022/12/24 12:51:28;;;;;;;12.37;3.70;;;;;;;11.31;95.49;99737.22;2833890;82;21751;-84
2022/12/24 12:55:46;;;;;;;8.87;3.07;;;;;;;11.24;93.92;99767.09;2853128;82;21086;-84
2022/12/24 12:59:59;;;;;;;11.70;2.65;;;;;;;11.20;94.35;99759.52;2840079;83;21065;-85
2022/12/24 13:04:20;;;;;;;7.15;4.65;;;;;;;11.33;95.13;99763.20;2843584;82;21098;-84
2022/12/24 13:08:55;;;;;;;9.33;3.25;;;;;;;11.45;93.98;99763.40;2843447;83;21034;-84
2022/12/24 13:13:31;;;;;;;7.40;3.60;;;;;;;11.40;91.48;99781.64;2758540;85;21064;-85
2022/12/24 13:18:11;;;;;;;21.47;4.10;;;;;;;11.40;92.54;99770.99;2751954;84;21735;-85
2022/12/24 13:22:16;;;;;;;11.68;5.05;;;;;;;11.22;93.11;99785.03;2755469;85;21082;-84
2022/12/24 13:26:18;;;;;;;7.83;3.52;;;;;;;11.18;92.67;99792.11;2757803;84;21074;-84
2022/12/24 13:30:38;;;;;;;12.00;3.83;;;;;;;11.25;92.03;99799.86;2736548;84;21057;-85
2022/12/24 13:34:39;;;;;;;7.15;3.17;;;;;;;11.19;92.04;99816.41;2757805;84;21644;-83
2022/12/24 13:38:57;;;;;;;9.23;4.42;;;;;;;11.32;92.60;99799.66;2761122;83;21062;-83
2022/12/24 13:43:05;;;;;;;13.60;3.25;;;;;;;11.16;90.98;99822.84;2775788;83;21019;-83
2022/12/24 13:47:20;;;;;;;6.60;3.17;;;;;;;10.97;91.20;99809.89;2764175;84;21021;-82
2022/12/24 13:51:25;;;;;;;10.90;3.75;;;;;;;10.80;90.93;99824.74;2815049;83;21025;-83
2022/12/24 13:55:27;;;;;;;11.97;4.22;;;;;;;10.66;92.20;99822.00;2806663;83;21035;-83
2022/12/24 13:59:35;;;;;;;11.78;4.45;;;;;;;10.50;92.97;99828.34;2793541;83;21625;-83
2022/12/24 14:03:53;;;;;;;8.88;4.40;;;;;;;10.34;94.79;99827.00;2804924;82;21058;-83
2022/12/24 14:07:57;;;;;;;8.25;4.40;;;;;;;10.21;94.49;99827.72;2800528;83;21007;-83
2022/12/24 14:12:04;;;;;;;13.00;4.42;;;;;;;10.04;95.30;99823.89;2793099;82;21364;-83
2022/12/24 14:16:26;;;;;;;8.15;5.40;;;;;;;9.98;96.16;99837.22;2855017;82;21471;-83
2022/12/24 14:20:28;;;;;;;12.45;5.65;;;;;;;9.86;97.04;99831.16;2820779;82;21123;-83
2022/12/24 14:24:42;;;;;;;9.48;5.62;;;;;;;9.71;97.58;99843.95;2801621;83;21054;-83
2022/12/24 14:28:57;;;;;;;10.65;6.12;;;;;;;9.64;98.38;99849.44;2842006;83;21100;-82
2022/12/24 14:32:58;;;;;;;15.10;6.72;;;;;;;9.57;99.58;99854.42;2817364;82;21579;-83
2022/12/24 14:37:03;;;;;;;12.98;6.05;;;;;;;9.38;99.84;99862.61;2842855;82;21011;-83
2022/12/24 14:41:28;;;;;;;11.23;5.27;;;;;;;9.33;99.21;99870.59;2813915;83;21560;-83
2022/12/24 14:45:43;;;;;;;11.50;5.37;;;;;;;9.22;99.61;99879.45;2798174;83;21592;-83
2022/12/24 14:50:18;;;;;;;14.60;7.33;;;;;;;9.18;100.00;99888.64;2853791;82;21011;-83
2022/12/24 14:54:39;;;;;;;12.25;5.40;;;;;;;9.26;100.00;99897.65;2810378;83;21025;-83
2022/12/24 14:58:43;;;;;;;9.20;4.72;;;;;;;9.36;100.00;99902.18;2800330;83;21094;-84
2022/12/24 15:02:51;;;;;;;15.43;5.62;;;;;;;9.45;100.00;99914.70;2817492;83;21004;-84
2022/12/24 15:06:56;;;;;;;9.43;5.20;;;;;;;9.51;100.00;99926.13;2813379;84;21086;-84
2022/12/24 15:11:05;;;;;;;19.30;7.33;;;;;;;9.61;99.97;99925.35;2820780;83;20979;-84
2022/12/24 15:15:10;;;;;;;10.60;5.25;;;;;;;9.68;98.38;99934.51;2776707;85;21027;-84
2022/12/24 15:19:22;;;;;;;15.72;6.03;;;;;;;9.73;98.58;99934.95;2806810;82;21026;-84
2022/12/24 15:23:33;;;;;;;14.23;7.55;;;;;;;9.70;99.30;99944.52;2756686;85;21011;-84
2022/12/24 15:27:38;;;;;;;9.73;5.30;;;;;;;9.75;99.57;99942.81;2803884;83;30776;-84
2022/12/24 15:31:40;;;;;;;11.30;7.03;;;;;;;9.71;99.01;99950.18;2781922;85;21063;-84
2022/12/24 15:35:55;;;;;;;9.03;5.53;;;;;;;9.56;99.42;99957.13;2817992;83;21050;-84
2022/12/24 15:40:07;;;;;;;15.78;7.08;;;;;;;9.47;99.62;99960.55;2795961;85;21103;-84
2022/12/24 15:44:12;;;;;;;10.32;6.10;;;;;;;9.40;100.00;99967.32;2815792;83;21134;-84
2022/12/24 15:48:24;;;;;;;18.87;6.15;;;;;;;9.32;100.00;99961.81;2795615;85;21121;-84
2022/12/24 15:52:25;;;;;;;14.05;7.92;;;;;;;9.17;100.00;99964.73;2816778;83;21018;-84
2022/12/24 15:56:34;;;;;;;11.57;6.95;;;;;;;9.13;100.00;99972.59;2762365;85;21565;-84
2022/12/24 16:00:35;;;;;;;12.93;7.08;;;;;;;9.11;100.00;99978.52;2779467;84;21086;-84
2022/12/24 16:04:37;;;;;;;14.23;7.15;;;;;;;9.12;100.00;99987.66;2832737;82;21108;-84
2022/12/24 16:08:43;;;;;;;16.95;9.10;;;;;;;9.21;100.00;99991.88;2827032;82;21461;-84
2022/12/24 16:12:44;;;;;;;;;;;;;;;9.31;100.00;99986.67;2831127;82;21086;-85
2022/12/24 16:16:49;;;;;;;12.43;7.45;;;;;;;9.22;100.00;99994.39;2887723;82;20139;-84
2022/12/24 16:20:52;;;;;;;17.90;6.83;;;;;;;9.16;99.74;100000.20;2869281;82;21056;-84
2022/12/24 16:24:54;;;;;;;11.83;6.58;;;;;;;9.10;98.96;100012.65;2854372;82;21074;-84
2022/12/24 16:28:56;;;;;;;11.93;6.33;;;;;;;9.02;99.08;100007.09;2881510;82;21038;-84
2022/12/24 16:32:57;;;;;;;14.65;6.35;;;;;;;9.02;99.20;100007.09;2860037;82;21058;-84
2022/12/24 16:37:00;;;;;;;14.98;7.37;;;;;;;8.95;99.41;100006.27;2825795;83;21602;-84
2022/12/24 16:41:01;;;;;;;10.65;5.33;;;;;;;8.94;99.41;100012.55;2876888;82;21077;-84
2022/12/24 16:45:03;;;;;;;13.88;6.08;;;;;;;8.85;99.38;100025.22;2847591;82;21090;-84
2022/12/24 16:49:04;;;;;;;10.68;5.20;;;;;;;8.75;99.76;100025.10;2848805;80;21649;-84
2022/12/24 16:53:05;;;;;;;6.92;4.20;;;;;;;8.64;100.00;100033.04;2851425;82;21036;-83
2022/12/24 16:57:09;;;;;;;7.20;4.08;;;;;;;8.68;100.00;100035.34;2847453;82;21566;-84
2022/12/24 17:01:10;;;;;;;17.77;5.42;;;;;;;8.74;100.00;100034.48;2850188;82;21550;-83
2022/12/24 17:05:12;;;;;;;14.20;4.45;;;;;;;8.77;100.00;100039.55;2835309;82;21042;-83
2022/12/24 17:09:13;;;;;;;8.98;4.70;;;;;;;8.79;100.00;100049.55;2872004;82;20983;-83
2022/12/24 17:13:14;;;;;;;7.60;4.97;;;;;;;8.84;100.00;100050.03;2862825;82;21712;-83
2022/12/24 17:17:23;;;;;;;8.13;4.28;;;;;;;8.84;100.00;100054.00;2851392;83;21023;-83
2022/12/24 17:21:25;;;;;;;10.18;5.85;;;;;;;8.97;100.00;100054.73;2892217;81;21056;-83
2022/12/24 17:25:26;;;;;;;11.50;7.00;;;;;;;9.07;100.00;100059.33;2900598;81;21635;-83
2022/12/24 17:29:27;;;;;;;18.45;10.10;;;;;;;8.98;100.00;100066.21;2823985;83;21010;-84
2022/12/24 17:33:28;;;;;;;8.10;4.67;;;;;;;8.97;100.00;100075.14;2818015;83;21535;-84
2022/12/24 17:37:30;;;;;;;11.33;5.92;;;;;;;8.97;100.00;100082.59;2824469;83;21138;-83
2022/12/24 17:41:31;;;;;;;13.80;6.37;;;;;;;8.98;100.00;100080.30;2820859;83;21540;-83
2022/12/24 17:45:32;;;;;;;13.32;6.40;;;;;;;9.04;100.00;100083.43;2847815;83;21083;-84
2022/12/24 17:49:34;;;;;;;14.43;8.38;;;;;;;9.08;100.00;100086.23;2849451;83;21019;-83
2022/12/24 17:53:38;;;;;;;10.43;6.72;;;;;;;9.16;100.00;100086.95;2883793;82;21031;-84
2022/12/24 17:57:40;;;;;;;15.08;6.55;;;;;;;9.15;100.00;100095.38;2843792;83;21048;-84
2022/12/24 18:01:41;;;;;;;17.70;4.97;;;;;;;9.21;100.00;100100.19;2865503;82;21577;-83
2022/12/24 18:05:42;;;;;;;10.70;5.08;;;;;;;9.33;100.00;100109.48;2753850;83;21043;-83
2022/12/24 18:09:44;;;;;;;8.05;4.62;;;;;;;9.38;100.00;100116.59;2838750;82;21057;-84
2022/12/24 18:13:48;;;;;;;5.65;4.58;;;;;;;9.43;100.00;100119.25;2815759;83;21026;-83
2022/12/24 18:17:52;;;;;;;9.83;3.85;;;;;;;9.51;100.00;100119.97;2821897;83;21050;-83
2022/12/24 18:21:54;;;;;;;7.55;3.72;;;;;;;9.60;100.00;100116.20;2812400;83;21037;-84
2022/12/24 18:26:01;;;;;;;8.50;4.45;;;;;;;9.64;100.00;100126.45;2843803;83;20998;-84
2022/12/24 18:30:05;;;;;;;9.33;3.70;;;;;;;9.70;100.00;100123.30;2812340;83;21024;-83
2022/12/24 18:34:10;;;;;;;7.58;3.37;;;;;;;9.71;100.00;100130.30;2800968;83;21458;-83
2022/12/24 18:38:12;;;;;;;5.75;4.47;;;;;;;9.66;100.00;100138.30;2853239;81;21122;-83
2022/12/24 18:42:13;;;;;;;6.40;3.70;;;;;;;9.67;100.00;100146.63;2861488;82;21034;-84
2022/12/24 18:46:19;;;;;;;7.92;3.55;;;;;;;9.62;100.00;100151.44;2839433;83;21012;-83
2022/12/24 18:50:20;;;;;;;;;;;;;;;9.58;100.00;100160.98;2829990;83;21495;-83
2022/12/24 18:54:22;;;;;;;5.97;4.20;;;;;;;9.63;100.00;100167.73;2845486;83;20117;-83
2022/12/24 18:58:23;;;;;;;6.75;3.08;;;;;;;9.61;100.00;100165.69;2785607;83;21071;-83
2022/12/24 19:02:25;;;;;;;5.83;3.20;;;;;;;9.56;100.00;100162.09;2832242;83;21587;-83
2022/12/24 19:06:26;;;;;;;6.20;3.12;;;;;;;9.55;100.00;100167.88;2845407;81;21055;-83
2022/12/24 19:10:28;;;;;;;7.20;3.08;;;;;;;9.49;100.00;100175.47;2857589;80;21006;-81
2022/12/24 19:14:29;;;;;;;5.05;2.50;;;;;;;9.46;100.00;100175.25;2839061;81;21554;-81